createdAt,value
2022-10-06T00:00:38.888Z,16.59
2022-10-06T00:03:05.396Z,16.61
2022-10-06T00:05:32.051Z,16.60
2022-10-06T00:08:00.164Z,16.61
2022-10-06T00:10:27.942Z,16.64
2022-10-06T00:12:54.534Z,16.65
2022-10-06T00:15:25.957Z,16.65
2022-10-06T00:17:52.528Z,16.67
2022-10-06T00:20:19.800Z,16.66
2022-10-06T00:22:48.591Z,16.66
2022-10-06T00:25:18.067Z,16.65
2022-10-06T00:27:49.403Z,16.64
2022-10-06T00:30:25.057Z,16.65
2022-10-06T00:33:16.160Z,16.60
2022-10-06T00:35:43.926Z,16.65
2022-10-06T00:38:15.937Z,16.63
2022-10-06T00:40:48.449Z,16.63
2022-10-06T00:43:53.497Z,16.60
2022-10-06T00:46:20.078Z,16.65
2022-10-06T00:48:51.429Z,16.63
2022-10-06T00:51:18.695Z,16.65
2022-10-06T00:53:45.500Z,16.64
2022-10-06T00:56:12.690Z,16.63
2022-10-06T00:58:39.317Z,16.63
2022-10-06T01:01:08.775Z,16.61
2022-10-06T01:03:39.535Z,16.60
2022-10-06T01:06:06.804Z,16.58
2022-10-06T01:08:34.140Z,16.57
2022-10-06T01:11:00.705Z,16.56
2022-10-06T01:13:28.379Z,16.52
2022-10-06T01:16:14.613Z,16.45
2022-10-06T01:18:42.796Z,16.46
2022-10-06T01:21:20.351Z,16.37
2022-10-06T01:23:47.154Z,16.35
2022-10-06T01:26:16.020Z,16.32
2022-10-06T01:28:42.709Z,16.27
2022-10-06T01:31:09.853Z,16.24
2022-10-06T01:33:36.477Z,16.20
2022-10-06T01:36:03.193Z,16.18
2022-10-06T01:38:29.959Z,16.16
2022-10-06T01:40:56.908Z,16.13
2022-10-06T01:43:23.427Z,16.12
2022-10-06T01:45:57.329Z,16.06
2022-10-06T01:48:25.563Z,16.07
2022-10-06T01:50:52.498Z,16.05
2022-10-06T01:53:19.357Z,16.02
2022-10-06T01:55:46.477Z,16.00
2022-10-06T01:58:13.163Z,15.97
2022-10-06T02:00:40.143Z,15.94
2022-10-06T02:03:07.664Z,15.89
2022-10-06T02:05:34.962Z,15.87
2022-10-06T02:08:02.745Z,15.85
2022-10-06T02:10:29.687Z,15.81
2022-10-06T02:12:56.466Z,15.79
2022-10-06T02:15:23.151Z,15.75
2022-10-06T02:17:49.758Z,15.72
2022-10-06T02:20:16.571Z,15.70
2022-10-06T02:22:43.920Z,15.68
2022-10-06T02:25:12.339Z,15.66
2022-10-06T02:27:39.618Z,15.63
2022-10-06T02:30:08.292Z,15.60
2022-10-06T02:32:36.913Z,15.59
2022-10-06T02:35:04.175Z,15.57
2022-10-06T02:37:31.244Z,15.55
2022-10-06T02:39:57.780Z,15.54
2022-10-06T02:42:24.537Z,15.52
2022-10-06T02:44:52.305Z,15.49
2022-10-06T02:47:19.233Z,15.48
2022-10-06T02:49:46.269Z,15.47
2022-10-06T02:52:12.912Z,15.46
2022-10-06T02:54:39.503Z,15.44
2022-10-06T02:57:06.023Z,15.42
2022-10-06T02:59:33.995Z,15.40
2022-10-06T03:02:00.716Z,15.39
2022-10-06T03:04:27.525Z,15.38
2022-10-06T03:06:54.209Z,15.37
2022-10-06T03:09:20.748Z,15.37
2022-10-06T03:11:47.474Z,15.35
2022-10-06T03:14:17.759Z,15.35
2022-10-06T03:16:47.218Z,15.35
2022-10-06T03:19:13.826Z,15.34
2022-10-06T03:21:42.909Z,15.34
2022-10-06T03:24:10.942Z,15.34
2022-10-06T03:26:43.324Z,15.30
2022-10-06T03:29:11.997Z,15.32
2022-10-06T03:31:39.891Z,15.30
2022-10-06T03:34:06.708Z,15.29
2022-10-06T03:36:34.632Z,15.26
2022-10-06T03:39:02.749Z,15.23
2022-10-06T03:41:31.496Z,15.21
2022-10-06T03:43:59.720Z,15.18
2022-10-06T03:46:32.439Z,15.14
2022-10-06T03:48:59.652Z,15.13
2022-10-06T03:51:29.763Z,15.09
2022-10-06T03:53:56.756Z,15.07
2022-10-06T03:56:24.355Z,15.03
2022-10-06T03:58:53.404Z,15.01
2022-10-06T04:01:26.636Z,14.95
2022-10-06T04:03:55.537Z,14.93
2022-10-06T04:06:23.066Z,14.91
2022-10-06T04:08:51.237Z,14.88
2022-10-06T04:11:24.060Z,14.83
2022-10-06T04:14:00.131Z,14.77
2022-10-06T04:16:31.790Z,14.78
2022-10-06T04:19:00.946Z,14.75
2022-10-06T04:21:29.065Z,14.72
2022-10-06T04:24:00.036Z,14.70
2022-10-06T04:26:30.726Z,14.67
2022-10-06T04:28:57.674Z,14.67
2022-10-06T04:31:33.103Z,14.61
2022-10-06T04:34:01.619Z,14.62
2022-10-06T04:36:31.390Z,14.59
2022-10-06T04:39:01.424Z,14.57
2022-10-06T04:41:33.270Z,14.54
2022-10-06T04:44:00.880Z,14.55
2022-10-06T04:46:42.615Z,14.52
2022-10-06T04:49:13.385Z,14.51
2022-10-06T04:51:44.693Z,14.50
2022-10-06T04:54:11.432Z,14.49
2022-10-06T04:56:37.978Z,14.46
2022-10-06T04:59:04.474Z,14.45
2022-10-06T05:01:34.226Z,14.42
2022-10-06T05:04:02.122Z,14.42
2022-10-06T05:06:31.968Z,14.41
2022-10-06T05:09:05.063Z,14.38
2022-10-06T05:11:31.968Z,14.37
2022-10-06T05:14:00.313Z,14.40
2022-10-06T05:16:29.833Z,14.36
2022-10-06T05:18:56.564Z,14.34
2022-10-06T05:21:28.985Z,14.30
2022-10-06T05:23:56.101Z,14.29
2022-10-06T05:26:25.859Z,14.27
2022-10-06T05:28:52.686Z,14.26
2022-10-06T05:31:31.740Z,14.21
2022-10-06T05:33:59.718Z,14.23
2022-10-06T05:36:29.814Z,14.21
2022-10-06T05:38:57.781Z,14.20
2022-10-06T05:41:27.053Z,14.20
2022-10-06T05:43:53.685Z,14.21
2022-10-06T05:46:25.085Z,14.20
2022-10-06T05:48:55.554Z,14.19
2022-10-06T05:51:30.088Z,14.19
2022-10-06T05:54:00.724Z,14.19
2022-10-06T05:56:33.162Z,14.17
2022-10-06T05:59:00.654Z,14.16
2022-10-06T06:01:41.318Z,14.11
2022-10-06T06:04:11.229Z,14.12
2022-10-06T06:06:43.102Z,14.08
2022-10-06T06:09:17.658Z,14.07
2022-10-06T06:11:47.164Z,14.10
2022-10-06T06:14:16.392Z,14.07
2022-10-06T06:16:44.637Z,14.06
2022-10-06T06:19:13.539Z,14.06
2022-10-06T06:21:40.484Z,14.06
2022-10-06T06:24:07.176Z,14.06
2022-10-06T06:26:36.957Z,14.05
2022-10-06T06:29:05.367Z,14.05
2022-10-06T06:31:37.367Z,14.04
2022-10-06T06:34:06.855Z,14.06
2022-10-06T06:36:41.207Z,14.04
2022-10-06T06:39:13.194Z,14.05
2022-10-06T06:41:47.147Z,14.06
2022-10-06T06:44:14.035Z,14.08
2022-10-06T06:46:43.495Z,14.10
2022-10-06T06:49:12.093Z,14.10
2022-10-06T06:51:41.205Z,14.09
2022-10-06T06:54:09.830Z,14.10
2022-10-06T06:56:37.083Z,14.11
2022-10-06T06:59:09.020Z,14.12
2022-10-06T07:01:35.701Z,14.13
2022-10-06T07:04:02.315Z,14.13
2022-10-06T07:06:30.652Z,14.14
2022-10-06T07:08:59.506Z,14.15
2022-10-06T07:11:28.088Z,14.18
2022-10-06T07:13:57.763Z,14.19
2022-10-06T07:16:43.403Z,14.22
2022-10-06T07:19:29.763Z,14.23
2022-10-06T07:22:18.705Z,14.26
2022-10-06T07:25:04.347Z,14.28
2022-10-06T07:27:33.449Z,14.29
2022-10-06T07:30:00.171Z,14.31
2022-10-06T07:32:30.933Z,14.33
2022-10-06T07:34:58.768Z,14.35
2022-10-06T07:37:25.980Z,14.38
2022-10-06T07:39:52.540Z,14.40
2022-10-06T07:42:19.415Z,14.43
2022-10-06T07:45:07.232Z,14.45
2022-10-06T07:47:34.553Z,14.49
2022-10-06T07:50:01.122Z,14.52
2022-10-06T07:52:29.055Z,14.54
2022-10-06T07:54:56.523Z,14.58
2022-10-06T07:57:23.345Z,14.61
2022-10-06T07:59:50.674Z,14.64
2022-10-06T08:02:19.233Z,14.68
2022-10-06T08:04:45.769Z,14.71
2022-10-06T08:07:12.665Z,14.75
2022-10-06T08:09:39.224Z,14.79
2022-10-06T08:12:25.813Z,14.81
2022-10-06T08:14:52.502Z,14.87
2022-10-06T08:17:19.322Z,14.91
2022-10-06T08:19:47.925Z,14.94
2022-10-06T08:22:16.030Z,14.98
2022-10-06T08:25:04.258Z,15.03
2022-10-06T08:27:29.509Z,15.09
2022-10-06T08:29:56.995Z,15.14
2022-10-06T08:32:24.405Z,15.17
2022-10-06T08:34:51.283Z,15.22
2022-10-06T08:37:23.907Z,15.28
2022-10-06T08:39:51.494Z,15.33
2022-10-06T08:42:28.585Z,15.37
2022-10-06T08:45:14.648Z,15.40
2022-10-06T08:48:07.260Z,15.48
2022-10-06T08:50:42.047Z,15.56
2022-10-06T08:53:11.767Z,15.63
2022-10-06T08:55:48.185Z,15.66
2022-10-06T08:58:36.763Z,15.69
2022-10-06T09:01:15.946Z,15.75
2022-10-06T09:03:48.568Z,15.83
2022-10-06T09:06:38.132Z,15.87
2022-10-06T09:09:21.778Z,15.95
2022-10-06T09:12:09.830Z,15.99
2022-10-06T09:15:15.415Z,16.05
2022-10-06T09:17:50.688Z,16.13
2022-10-06T09:20:32.738Z,16.21
2022-10-06T09:23:01.941Z,16.29
2022-10-06T09:25:30.728Z,16.37
2022-10-06T09:27:59.652Z,16.48
2022-10-06T09:30:27.245Z,16.56
2022-10-06T09:33:02.983Z,16.60
2022-10-06T09:35:32.498Z,16.67
2022-10-06T09:38:08.591Z,16.73
2022-10-06T09:40:51.255Z,16.74
2022-10-06T09:43:29.020Z,16.79
2022-10-06T09:46:17.763Z,16.88
2022-10-06T09:48:44.311Z,16.96
2022-10-06T09:51:17.146Z,17.02
2022-10-06T09:54:02.820Z,17.11
2022-10-06T09:56:29.837Z,17.20
2022-10-06T09:58:58.576Z,17.27
2022-10-06T10:01:27.418Z,17.35
2022-10-06T10:04:19.350Z,17.40
2022-10-06T10:06:47.988Z,17.51
2022-10-06T10:09:22.131Z,17.55
2022-10-06T10:12:30.755Z,17.56
2022-10-06T10:15:04.307Z,17.58
2022-10-06T10:17:39.697Z,17.62
2022-10-06T10:20:29.155Z,17.60
2022-10-06T10:22:58.750Z,17.69
2022-10-06T10:25:46.195Z,17.74
2022-10-06T10:28:51.638Z,17.83
2022-10-06T10:31:31.347Z,17.99
2022-10-06T10:34:23.834Z,18.09
2022-10-06T10:37:12.555Z,18.25
2022-10-06T10:39:50.691Z,18.39
2022-10-06T10:42:33.506Z,18.52
2022-10-06T10:45:04.379Z,18.67
2022-10-06T10:47:41.865Z,18.77
2022-10-06T10:50:21.152Z,18.91
2022-10-06T10:52:51.810Z,19.02
2022-10-06T10:55:23.549Z,19.16
2022-10-06T10:57:54.127Z,19.29
2022-10-06T11:00:25.511Z,19.42
2022-10-06T11:02:55.676Z,19.59
2022-10-06T11:05:53.734Z,19.77
2022-10-06T11:08:35.402Z,20.08
2022-10-06T11:11:08.514Z,20.40
2022-10-06T11:13:45.929Z,20.66
2022-10-06T11:16:27.262Z,20.89
2022-10-06T11:19:22.208Z,21.14
2022-10-06T11:22:14.111Z,21.50
2022-10-06T11:24:40.668Z,21.93
2022-10-06T11:27:22.975Z,22.27
2022-10-06T11:30:19.500Z,22.62
2022-10-06T11:33:09.016Z,23.09
2022-10-06T11:35:39.306Z,23.55
2022-10-06T11:38:20.110Z,23.95
2022-10-06T11:40:49.502Z,24.40
2022-10-06T11:43:43.040Z,24.72
2022-10-06T11:46:12.591Z,24.97
2022-10-06T11:48:39.752Z,25.09
2022-10-06T11:51:24.777Z,25.22
2022-10-06T11:53:52.807Z,25.47
2022-10-06T11:56:19.385Z,25.66
2022-10-06T11:58:52.135Z,25.75
2022-10-06T12:01:27.897Z,25.84
2022-10-06T12:04:09.714Z,25.97
2022-10-06T12:06:42.146Z,26.17
2022-10-06T12:09:25.791Z,26.42
2022-10-06T12:11:54.314Z,26.75
2022-10-06T12:18:11.169Z,27.43
2022-10-06T12:21:06.341Z,27.89
2022-10-06T12:23:52.024Z,28.27
2022-10-06T12:26:34.428Z,28.58
2022-10-06T12:29:28.013Z,28.78
2022-10-06T12:32:25.489Z,28.79
2022-10-06T12:34:58.584Z,28.75
2022-10-06T12:37:34.422Z,28.69
2022-10-06T12:40:38.477Z,28.68
2022-10-06T12:43:23.085Z,28.65
2022-10-06T12:45:55.984Z,28.39
2022-10-06T12:48:33.705Z,28.01
2022-10-06T12:51:25.302Z,27.52
2022-10-06T12:53:52.395Z,27.26
2022-10-06T12:56:37.332Z,26.82
2022-10-06T12:59:23.343Z,26.52
2022-10-06T13:01:52.660Z,26.28
2022-10-06T13:04:43.233Z,25.89
2022-10-06T13:07:11.789Z,25.66
2022-10-06T13:09:38.377Z,25.42
2022-10-06T13:12:23.484Z,25.13
2022-10-06T13:15:34.797Z,24.88
2022-10-06T13:18:14.549Z,24.60
2022-10-06T13:20:55.065Z,24.36
2022-10-06T13:23:29.044Z,24.14
2022-10-06T13:26:05.853Z,23.86
2022-10-06T13:28:44.788Z,23.64
2022-10-06T13:31:26.742Z,23.53
2022-10-06T13:34:15.909Z,23.39
2022-10-06T13:36:47.030Z,23.42
2022-10-06T13:39:22.368Z,23.49
2022-10-06T13:42:02.496Z,23.63
2022-10-06T13:44:40.896Z,23.87
2022-10-06T13:47:14.687Z,24.17
2022-10-06T13:49:41.178Z,24.46
2022-10-06T13:52:17.295Z,24.71
2022-10-06T13:54:54.308Z,25.09
2022-10-06T13:57:36.118Z,25.53
2022-10-06T14:00:29.586Z,26.07
2022-10-06T14:03:05.375Z,26.69
2022-10-06T14:05:36.928Z,27.29
2022-10-06T14:08:15.045Z,27.77
2022-10-06T14:10:42.524Z,28.16
2022-10-06T14:13:16.467Z,28.45
2022-10-06T14:15:56.322Z,28.75
2022-10-06T14:18:30.412Z,29.01
2022-10-06T14:20:57.401Z,29.20
2022-10-06T14:23:49.804Z,29.22
2022-10-06T14:26:18.829Z,29.26
2022-10-06T14:28:49.060Z,29.19
2022-10-06T14:31:16.102Z,29.11
2022-10-06T14:33:43.203Z,29.03
2022-10-06T14:36:16.477Z,28.96
2022-10-06T14:38:43.190Z,29.04
2022-10-06T14:41:09.755Z,29.21
2022-10-06T14:43:36.330Z,29.42
2022-10-06T14:46:06.221Z,29.66
2022-10-06T14:48:33.030Z,29.89
2022-10-06T14:51:03.561Z,30.08
2022-10-06T14:53:30.709Z,30.23
2022-10-06T14:56:10.163Z,30.27
2022-10-06T14:58:38.736Z,30.33
2022-10-06T15:01:10.287Z,30.26
2022-10-06T15:03:37.003Z,30.18
2022-10-06T15:06:24.309Z,30.08
2022-10-06T15:08:55.735Z,29.91
2022-10-06T15:11:24.828Z,29.69
2022-10-06T15:13:54.186Z,29.30
2022-10-06T15:16:24.451Z,28.75
2022-10-06T15:18:51.870Z,28.15
2022-10-06T15:21:19.317Z,27.53
2022-10-06T15:23:48.127Z,26.89
2022-10-06T15:26:33.840Z,26.28
2022-10-06T15:29:03.243Z,25.61
2022-10-06T15:31:35.794Z,25.01
2022-10-06T15:34:04.392Z,24.53
2022-10-06T15:36:42.642Z,24.01
2022-10-06T15:39:14.379Z,23.65
2022-10-06T15:41:42.889Z,23.34
2022-10-06T15:44:10.914Z,23.02
2022-10-06T15:46:51.688Z,22.70
2022-10-06T15:49:20.585Z,22.46
2022-10-06T15:51:56.590Z,22.19
2022-10-06T15:54:28.570Z,21.93
2022-10-06T15:56:57.717Z,21.73
2022-10-06T15:59:25.658Z,21.54
2022-10-06T16:02:04.148Z,21.35
2022-10-06T16:04:46.580Z,21.16
2022-10-06T16:07:16.331Z,21.00
2022-10-06T16:09:50.784Z,20.81
2022-10-06T16:12:19.952Z,20.69
2022-10-06T16:14:47.079Z,20.57
2022-10-06T16:17:14.670Z,20.46
2022-10-06T16:19:41.785Z,20.35
2022-10-06T16:22:13.350Z,20.25
2022-10-06T16:24:39.923Z,20.16
2022-10-06T16:27:06.692Z,20.07
2022-10-06T16:29:33.292Z,19.99
2022-10-06T16:31:59.839Z,19.90
2022-10-06T16:34:26.506Z,19.83
2022-10-06T16:36:53.029Z,19.75
2022-10-06T16:39:22.129Z,19.67
2022-10-06T16:41:49.628Z,19.61
2022-10-06T16:44:17.366Z,19.53
2022-10-06T16:46:45.054Z,19.44
2022-10-06T16:49:11.944Z,19.37
2022-10-06T16:51:41.061Z,19.30
2022-10-06T16:54:10.740Z,19.23
2022-10-06T16:56:40.228Z,19.16
2022-10-06T16:59:13.748Z,19.06
2022-10-06T17:01:40.969Z,19.00
2022-10-06T17:04:14.985Z,18.89
2022-10-06T17:06:44.803Z,18.84
2022-10-06T17:09:14.563Z,18.77
2022-10-06T17:11:47.555Z,18.70
2022-10-06T17:14:14.468Z,18.67
2022-10-06T17:16:42.932Z,18.61
2022-10-06T17:19:12.106Z,18.55
2022-10-06T17:21:47.677Z,18.49
2022-10-06T17:24:17.846Z,18.44
2022-10-06T17:26:47.621Z,18.36
2022-10-06T17:29:19.038Z,18.29
2022-10-06T17:31:47.062Z,18.24
2022-10-06T17:34:20.332Z,18.18
2022-10-06T17:36:49.014Z,18.13
2022-10-06T17:39:18.239Z,18.07
2022-10-06T17:41:46.612Z,18.03
2022-10-06T17:44:18.858Z,17.99
2022-10-06T17:46:45.977Z,17.94
2022-10-06T17:49:15.609Z,17.88
2022-10-06T17:51:48.044Z,17.83
2022-10-06T17:54:16.864Z,17.78
2022-10-06T17:56:44.723Z,17.74
2022-10-06T17:59:17.476Z,17.68
2022-10-06T18:01:45.413Z,17.68
2022-10-06T18:04:16.175Z,17.64
2022-10-06T18:06:44.395Z,17.62
2022-10-06T18:09:11.131Z,17.58
2022-10-06T18:11:47.954Z,17.53
2022-10-06T18:14:16.634Z,17.49
2022-10-06T18:16:55.641Z,17.44
2022-10-06T18:19:33.965Z,17.36
2022-10-06T18:22:10.448Z,17.35
2022-10-06T18:24:37.995Z,17.32
2022-10-06T18:27:06.403Z,17.29
2022-10-06T18:29:35.874Z,17.24
2022-10-06T18:37:36.256Z,17.13
2022-10-06T18:40:06.230Z,17.08
2022-10-06T18:42:33.187Z,17.04
2022-10-06T18:45:18.350Z,17.00
2022-10-06T18:48:03.284Z,16.96
2022-10-06T18:50:30.982Z,16.90
2022-10-06T18:52:57.587Z,16.85
2022-10-06T18:55:24.245Z,16.80
2022-10-06T18:57:51.433Z,16.77
2022-10-06T19:00:18.161Z,16.73
2022-10-06T19:02:48.269Z,16.71
2022-10-06T19:05:15.207Z,16.68
2022-10-06T19:07:41.980Z,16.65
2022-10-06T19:10:10.206Z,16.63
2022-10-06T19:12:36.747Z,16.61
2022-10-06T19:15:03.862Z,16.58
2022-10-06T19:17:30.407Z,16.53
2022-10-06T19:19:57.092Z,16.50
2022-10-06T19:22:25.113Z,16.47
2022-10-06T19:24:52.315Z,16.44
2022-10-06T19:27:24.217Z,16.40
2022-10-06T19:29:54.174Z,16.38
2022-10-06T19:32:25.729Z,16.34
2022-10-06T19:34:52.379Z,16.32
2022-10-06T19:37:19.330Z,16.30
2022-10-06T19:39:50.141Z,16.27
2022-10-06T19:42:37.368Z,16.24
2022-10-06T19:45:05.503Z,16.24
2022-10-06T19:47:32.180Z,16.21
2022-10-06T19:50:02.893Z,16.17
2022-10-06T19:52:31.493Z,16.15
2022-10-06T19:54:58.211Z,16.12
2022-10-06T19:57:25.179Z,16.07
2022-10-06T19:59:51.725Z,16.05
2022-10-06T20:02:18.250Z,16.01
2022-10-06T20:04:45.446Z,15.98
2022-10-06T20:07:12.249Z,15.94
2022-10-06T20:09:39.015Z,15.90
2022-10-06T20:12:05.977Z,15.85
2022-10-06T20:14:32.739Z,15.80
2022-10-06T20:16:59.366Z,15.77
2022-10-06T20:19:26.029Z,15.73
2022-10-06T20:21:52.954Z,15.70
2022-10-06T20:24:24.703Z,15.66
2022-10-06T20:26:52.890Z,15.66
2022-10-06T20:29:25.343Z,15.63
2022-10-06T20:31:58.500Z,15.63
2022-10-06T20:34:26.772Z,15.63
2022-10-06T20:36:56.118Z,15.67
2022-10-06T20:39:42.941Z,15.62
2022-10-06T20:42:14.835Z,15.61
2022-10-06T20:44:43.272Z,15.57
2022-10-06T20:47:11.653Z,15.52
2022-10-06T20:49:38.551Z,15.51
2022-10-06T20:52:05.821Z,15.48
2022-10-06T20:54:35.765Z,15.45
2022-10-06T20:57:04.992Z,15.41
2022-10-06T20:59:32.442Z,15.41
2022-10-06T21:02:02.490Z,15.39
2022-10-06T21:04:29.582Z,15.38
2022-10-06T21:06:57.244Z,15.36
2022-10-06T21:09:28.734Z,15.33
2022-10-06T21:11:57.531Z,15.30
2022-10-06T21:14:24.763Z,15.27
2022-10-06T21:16:52.457Z,15.21
2022-10-06T21:19:19.745Z,15.15
2022-10-06T21:21:52.332Z,15.10
2022-10-06T21:24:20.523Z,15.06
2022-10-06T21:26:47.747Z,15.02
2022-10-06T21:29:15.631Z,14.96
2022-10-06T21:31:43.234Z,14.90
2022-10-06T21:34:10.723Z,14.84
2022-10-06T21:36:37.465Z,14.79
2022-10-06T21:39:07.195Z,14.72
2022-10-06T21:41:39.015Z,14.66
2022-10-06T21:44:17.379Z,14.62
2022-10-06T21:46:49.678Z,14.57
2022-10-06T21:49:18.737Z,14.54
2022-10-06T21:51:47.761Z,14.50
2022-10-06T21:54:15.377Z,14.48
2022-10-06T21:56:42.232Z,14.43
2022-10-06T21:59:09.490Z,14.39
2022-10-06T22:01:38.546Z,14.36
2022-10-06T22:04:06.358Z,14.33
2022-10-06T22:06:35.117Z,14.29
2022-10-06T22:09:03.520Z,14.25
2022-10-06T22:11:35.933Z,14.21
2022-10-06T22:14:05.817Z,14.16
2022-10-06T22:16:34.986Z,14.14
2022-10-06T22:19:03.908Z,14.11
2022-10-06T22:21:33.534Z,14.09
2022-10-06T22:24:02.671Z,14.05
2022-10-06T22:26:31.932Z,14.04
2022-10-06T22:28:59.838Z,14.02
2022-10-06T22:31:28.231Z,13.99
2022-10-06T22:34:00.866Z,13.97
2022-10-06T22:36:28.839Z,13.95
2022-10-06T22:38:56.735Z,13.93
2022-10-06T22:41:24.073Z,13.91
2022-10-06T22:43:53.548Z,13.88
2022-10-06T22:46:20.251Z,13.87
2022-10-06T22:48:46.964Z,13.86
2022-10-06T22:51:13.603Z,13.84
2022-10-06T22:53:40.293Z,13.83
2022-10-06T22:56:07.133Z,13.79
2022-10-06T22:58:35.180Z,13.77
2022-10-06T23:01:13.048Z,13.72
2022-10-06T23:03:40.878Z,13.73
2022-10-06T23:06:10.609Z,13.69
2022-10-06T23:08:37.960Z,13.68
2022-10-06T23:11:10.035Z,13.65
2022-10-06T23:13:37.124Z,13.65
2022-10-06T23:16:07.780Z,13.62
2022-10-06T23:18:37.063Z,13.61
2022-10-06T23:21:11.967Z,13.59
2022-10-06T23:23:38.690Z,13.59
2022-10-06T23:26:07.985Z,13.59
2022-10-06T23:28:34.961Z,13.58
2022-10-06T23:31:03.439Z,13.58
2022-10-06T23:33:31.424Z,13.56
2022-10-06T23:36:02.509Z,13.54
2022-10-06T23:38:29.366Z,13.55
2022-10-06T23:40:56.089Z,13.54
2022-10-06T23:43:23.693Z,13.51
2022-10-06T23:45:50.857Z,13.49
2022-10-06T23:48:17.548Z,13.45
2022-10-06T23:50:55.077Z,13.38
2022-10-06T23:53:21.740Z,13.38
2022-10-06T23:55:48.436Z,13.35
2022-10-06T23:58:15.097Z,13.33
